createdAt,value
2016-12-15T00:00:13.854Z,54.70
2016-12-15T00:01:13.114Z,54.80
2016-12-15T00:02:12.536Z,54.80
2016-12-15T00:03:12.747Z,55.00
2016-12-15T00:04:13.053Z,54.70
2016-12-15T00:05:13.001Z,54.80
2016-12-15T00:06:12.500Z,54.50
2016-12-15T00:07:12.685Z,54.80
2016-12-15T00:08:12.803Z,54.80
2016-12-15T00:09:10.171Z,is
2016-12-15T00:10:12.637Z,54.70
2016-12-15T00:11:12.704Z,54.60
2016-12-15T00:12:12.741Z,54.80
2016-12-15T00:13:12.989Z,54.80
2016-12-15T00:14:12.391Z,54.70
2016-12-15T00:15:12.725Z,54.80
2016-12-15T00:16:12.596Z,54.70
2016-12-15T00:17:12.818Z,54.60
2016-12-15T00:18:12.839Z,54.60
2016-12-15T00:19:12.891Z,54.60
2016-12-15T00:20:14.836Z,54.70
2016-12-15T00:21:10.946Z,is
2016-12-15T00:22:13.055Z,54.60
2016-12-15T00:23:12.752Z,54.60
2016-12-15T00:24:12.327Z,54.50
2016-12-15T00:25:13.548Z,54.60
2016-12-15T00:26:12.642Z,54.60
2016-12-15T00:27:12.388Z,54.60
2016-12-15T00:28:12.011Z,54.70
2016-12-15T00:29:13.440Z,54.70
2016-12-15T00:30:11.797Z,54.70
2016-12-15T00:31:12.766Z,54.80
2016-12-15T00:32:13.934Z,54.80
2016-12-15T00:33:10.466Z,is
2016-12-15T00:34:12.572Z,54.90
2016-12-15T00:35:12.229Z,54.80
2016-12-15T00:36:09.917Z,is
2016-12-15T00:37:12.835Z,54.80
2016-12-15T00:38:12.664Z,54.90
2016-12-15T00:39:12.184Z,54.80
2016-12-15T00:40:13.165Z,54.00
2016-12-15T00:41:13.225Z,54.70
2016-12-15T00:42:15.075Z,54.70
2016-12-15T00:43:12.883Z,54.70
2016-12-15T00:44:12.801Z,54.50
2016-12-15T00:45:12.434Z,54.70
2016-12-15T00:46:12.567Z,54.50
2016-12-15T00:47:12.863Z,54.80
2016-12-15T00:48:12.355Z,54.60
2016-12-15T00:49:12.837Z,54.50
2016-12-15T00:50:13.479Z,53.90
2016-12-15T00:51:12.176Z,54.60
2016-12-15T00:52:13.897Z,54.80
2016-12-15T00:53:12.858Z,54.80
2016-12-15T00:54:14.777Z,54.80
2016-12-15T00:55:12.454Z,54.70
2016-12-15T00:56:12.448Z,54.70
2016-12-15T00:57:13.336Z,54.80
2016-12-15T00:58:13.213Z,54.90
2016-12-15T00:59:13.047Z,54.90
2016-12-15T01:00:14.808Z,54.90
2016-12-15T01:01:13.197Z,54.90
2016-12-15T01:02:12.676Z,54.70
2016-12-15T01:03:12.779Z,54.90
2016-12-15T01:04:18.616Z,54.70
2016-12-15T01:05:14.015Z,54.70
2016-12-15T01:06:12.648Z,54.80
2016-12-15T01:07:12.683Z,54.90
2016-12-15T01:08:14.179Z,54.80
2016-12-15T01:09:13.734Z,54.80
2016-12-15T01:10:14.680Z,54.00
2016-12-15T01:11:13.324Z,54.80
2016-12-15T01:12:14.546Z,54.90
2016-12-15T01:13:13.052Z,54.90
2016-12-15T01:14:14.886Z,54.90
2016-12-15T01:15:12.726Z,55.40
2016-12-15T01:16:12.797Z,54.80
2016-12-15T01:17:13.927Z,54.80
2016-12-15T01:18:15.215Z,54.90
2016-12-15T01:19:14.163Z,54.90
2016-12-15T01:20:15.613Z,54.90
2016-12-15T01:21:14.138Z,54.90
2016-12-15T01:22:14.162Z,54.90
2016-12-15T01:23:13.129Z,54.90
2016-12-15T01:24:13.134Z,54.90
2016-12-15T01:25:13.118Z,54.90
2016-12-15T01:26:13.205Z,54.90
2016-12-15T01:27:13.011Z,54.80
2016-12-15T01:28:13.194Z,54.80
2016-12-15T01:29:14.572Z,54.90
2016-12-15T01:30:13.106Z,54.90
2016-12-15T01:31:11.909Z,54.80
2016-12-15T01:32:14.288Z,54.90
2016-12-15T01:33:14.376Z,54.90
2016-12-15T01:34:10.066Z,is
2016-12-15T01:35:13.028Z,54.80
2016-12-15T01:36:12.519Z,54.90
2016-12-15T01:37:12.130Z,54.80
2016-12-15T01:38:13.433Z,54.80
2016-12-15T01:39:11.980Z,54.80
2016-12-15T01:40:14.040Z,54.90
2016-12-15T01:41:13.187Z,54.90
2016-12-15T01:42:13.993Z,54.90
2016-12-15T01:43:12.744Z,54.90
2016-12-15T01:44:09.807Z,is
2016-12-15T01:45:13.362Z,54.80
2016-12-15T01:46:14.198Z,54.90
2016-12-15T01:47:12.570Z,54.90
2016-12-15T01:48:12.652Z,54.90
2016-12-15T01:49:13.189Z,54.90
2016-12-15T01:50:13.718Z,54.90
2016-12-15T01:51:12.557Z,54.90
2016-12-15T01:52:13.260Z,54.90
2016-12-15T01:53:12.693Z,54.80
2016-12-15T01:54:09.764Z,is
2016-12-15T01:55:13.504Z,54.90
2016-12-15T01:56:12.981Z,54.90
2016-12-15T01:57:10.485Z,is
2016-12-15T01:58:14.015Z,54.90
2016-12-15T01:59:12.534Z,54.80
2016-12-15T02:00:17.655Z,54.90
2016-12-15T02:01:12.948Z,54.80
2016-12-15T02:02:13.823Z,54.90
2016-12-15T02:03:13.938Z,54.90
2016-12-15T02:04:13.654Z,54.90
2016-12-15T02:05:13.587Z,54.80
2016-12-15T02:06:13.396Z,54.80
2016-12-15T02:07:12.695Z,54.80
2016-12-15T02:08:12.256Z,54.90
2016-12-15T02:09:13.152Z,54.80
2016-12-15T02:10:19.068Z,54.80
2016-12-15T02:11:13.314Z,54.80
2016-12-15T02:12:12.677Z,54.90
2016-12-15T02:13:13.589Z,54.90
2016-12-15T02:14:13.830Z,54.90
2016-12-15T02:15:13.704Z,54.80
2016-12-15T02:16:13.512Z,54.80
2016-12-15T02:17:10.708Z,is
2016-12-15T02:18:12.363Z,54.80
2016-12-15T02:19:12.839Z,54.80
2016-12-15T02:20:12.890Z,54.90
2016-12-15T02:21:14.045Z,54.90
2016-12-15T02:22:12.892Z,54.90
2016-12-15T02:23:12.517Z,54.80
2016-12-15T02:24:13.055Z,54.90
2016-12-15T02:25:12.508Z,54.80
2016-12-15T02:26:12.564Z,54.80
2016-12-15T02:27:12.814Z,54.80
2016-12-15T02:28:13.386Z,54.90
2016-12-15T02:29:13.099Z,54.90
2016-12-15T02:30:12.635Z,54.80
2016-12-15T02:31:13.425Z,54.80
2016-12-15T02:32:15.311Z,54.90
2016-12-15T02:33:12.850Z,54.80
2016-12-15T02:34:09.546Z,is
2016-12-15T02:35:13.505Z,54.80
2016-12-15T02:36:13.129Z,54.90
2016-12-15T02:37:13.758Z,54.80
2016-12-15T02:38:14.940Z,54.90
2016-12-15T02:39:12.394Z,54.80
2016-12-15T02:40:12.954Z,54.80
2016-12-15T02:41:15.198Z,54.90
2016-12-15T02:42:13.338Z,54.80
2016-12-15T02:43:12.831Z,55.20
2016-12-15T02:44:12.873Z,54.80
2016-12-15T02:45:13.363Z,54.80
2016-12-15T02:46:13.877Z,54.90
2016-12-15T02:47:13.249Z,54.80
2016-12-15T02:48:14.067Z,54.90
2016-12-15T02:49:12.430Z,54.80
2016-12-15T02:50:12.731Z,54.40
2016-12-15T02:51:12.260Z,54.80
2016-12-15T02:52:13.573Z,54.90
2016-12-15T02:53:12.554Z,54.90
2016-12-15T02:54:12.067Z,54.80
2016-12-15T02:55:12.560Z,54.80
2016-12-15T02:56:12.310Z,54.80
2016-12-15T02:57:12.765Z,54.80
2016-12-15T02:58:12.136Z,54.90
2016-12-15T02:59:12.856Z,54.80
2016-12-15T03:00:15.058Z,54.80
2016-12-15T03:01:15.075Z,54.90
2016-12-15T03:02:14.082Z,54.90
2016-12-15T03:03:13.134Z,55.10
2016-12-15T03:04:14.147Z,54.90
2016-12-15T03:05:12.841Z,54.90
2016-12-15T03:06:13.766Z,54.80
2016-12-15T03:07:12.439Z,54.80
2016-12-15T03:08:14.438Z,54.00
2016-12-15T03:09:13.122Z,54.90
2016-12-15T03:10:12.736Z,54.90
2016-12-15T03:11:14.388Z,54.90
2016-12-15T03:12:14.417Z,54.80
2016-12-15T03:13:11.997Z,54.90
2016-12-15T03:14:14.217Z,54.90
2016-12-15T03:15:15.007Z,54.80
2016-12-15T03:16:12.567Z,54.80
2016-12-15T03:17:13.042Z,54.80
2016-12-15T03:18:15.079Z,55.10
2016-12-15T03:19:14.016Z,54.90
2016-12-15T03:20:12.965Z,54.90
2016-12-15T03:21:13.775Z,54.80
2016-12-15T03:22:12.978Z,54.90
2016-12-15T03:23:12.638Z,54.90
2016-12-15T03:24:11.210Z,is
2016-12-15T03:25:13.538Z,54.90
2016-12-15T03:26:12.896Z,54.90
2016-12-15T03:27:13.343Z,54.80
2016-12-15T03:28:12.276Z,54.80
2016-12-15T03:29:12.718Z,54.80
2016-12-15T03:30:12.801Z,54.80
2016-12-15T03:31:13.055Z,54.80
2016-12-15T03:32:13.552Z,54.80
2016-12-15T03:33:12.754Z,54.80
2016-12-15T03:34:13.056Z,54.90
2016-12-15T03:35:12.538Z,54.10
2016-12-15T03:36:13.176Z,54.90
2016-12-15T03:37:15.709Z,54.80
2016-12-15T03:38:13.333Z,54.90
2016-12-15T03:39:13.889Z,55.10
2016-12-15T03:40:13.706Z,54.90
2016-12-15T03:41:12.892Z,54.80
2016-12-15T03:42:13.070Z,54.80
2016-12-15T03:43:13.307Z,54.80
2016-12-15T03:44:13.598Z,54.80
2016-12-15T03:45:13.048Z,54.90
2016-12-15T03:46:14.022Z,54.90
2016-12-15T03:47:12.809Z,54.90
2016-12-15T03:48:12.305Z,54.90
2016-12-15T03:49:12.725Z,54.80
2016-12-15T03:50:12.074Z,54.80
2016-12-15T03:51:12.998Z,54.90
2016-12-15T03:52:12.968Z,54.90
2016-12-15T03:53:12.555Z,54.90
2016-12-15T03:54:13.450Z,54.90
2016-12-15T03:55:12.687Z,54.90
2016-12-15T03:56:13.886Z,54.80
2016-12-15T03:57:13.143Z,54.80
2016-12-15T03:58:13.360Z,54.80
2016-12-15T03:59:13.676Z,54.90
2016-12-15T04:00:12.920Z,54.80
2016-12-15T04:01:12.423Z,54.80
2016-12-15T04:02:12.455Z,54.90
2016-12-15T04:03:12.445Z,54.90
2016-12-15T04:04:13.522Z,54.90
2016-12-15T04:05:14.592Z,54.80
2016-12-15T04:06:13.564Z,54.90
2016-12-15T04:07:12.037Z,54.80
2016-12-15T04:08:13.426Z,54.90
2016-12-15T04:09:13.193Z,54.90
2016-12-15T04:10:12.804Z,54.80
2016-12-15T04:11:12.305Z,54.80
2016-12-15T04:12:12.704Z,54.70
2016-12-15T04:13:12.686Z,54.80
2016-12-15T04:14:12.930Z,54.80
2016-12-15T04:15:12.502Z,54.80
2016-12-15T04:16:12.066Z,55.10
2016-12-15T04:17:13.156Z,55.00
2016-12-15T04:18:12.980Z,54.80
2016-12-15T04:19:14.727Z,54.90
2016-12-15T04:20:13.037Z,54.80
2016-12-15T04:21:13.054Z,54.80
2016-12-15T04:22:13.093Z,54.80
2016-12-15T04:23:12.587Z,54.80
2016-12-15T04:24:12.645Z,54.90
2016-12-15T04:25:13.291Z,54.90
2016-12-15T04:26:12.885Z,54.80
2016-12-15T04:27:12.456Z,54.80
2016-12-15T04:28:13.249Z,54.90
2016-12-15T04:29:13.924Z,54.90
2016-12-15T04:30:12.707Z,54.90
2016-12-15T04:31:12.829Z,54.90
2016-12-15T04:32:14.023Z,54.90
2016-12-15T04:33:13.455Z,54.90
2016-12-15T04:34:13.062Z,54.90
2016-12-15T04:35:12.450Z,54.80
2016-12-15T04:36:12.527Z,54.90
2016-12-15T04:37:12.662Z,54.80
2016-12-15T04:38:12.543Z,54.90
2016-12-15T04:39:12.308Z,54.90
2016-12-15T04:40:12.927Z,54.80
2016-12-15T04:41:13.096Z,54.90
2016-12-15T04:42:12.836Z,54.70
2016-12-15T04:43:12.770Z,54.80
2016-12-15T04:44:13.554Z,54.20
2016-12-15T04:45:11.959Z,54.80
2016-12-15T04:46:12.344Z,54.80
2016-12-15T04:47:12.618Z,54.80
2016-12-15T04:48:12.767Z,54.90
2016-12-15T04:49:10.656Z,is
2016-12-15T04:50:11.962Z,54.70
2016-12-15T04:51:12.964Z,54.90
2016-12-15T04:52:12.572Z,54.80
2016-12-15T04:53:12.904Z,54.90
2016-12-15T04:54:12.776Z,54.90
2016-12-15T04:55:12.338Z,54.80
2016-12-15T04:56:14.317Z,54.90
2016-12-15T04:57:13.232Z,54.90
2016-12-15T04:58:10.831Z,is
2016-12-15T04:59:12.867Z,54.80
2016-12-15T05:00:13.204Z,54.90
2016-12-15T05:01:12.707Z,54.90
2016-12-15T05:02:15.048Z,54.90
2016-12-15T05:03:14.669Z,54.90
2016-12-15T05:04:12.388Z,54.80
2016-12-15T05:05:13.794Z,54.90
2016-12-15T05:06:13.586Z,54.90
2016-12-15T05:07:12.782Z,54.90
2016-12-15T05:08:12.816Z,54.90
2016-12-15T05:09:14.776Z,54.90
2016-12-15T05:10:12.443Z,54.90
2016-12-15T05:11:12.013Z,54.80
2016-12-15T05:12:13.228Z,54.90
2016-12-15T05:13:13.080Z,54.90
2016-12-15T05:14:13.496Z,55.00
2016-12-15T05:15:12.458Z,54.90
2016-12-15T05:16:11.909Z,54.80
2016-12-15T05:17:11.223Z,is
2016-12-15T05:18:13.438Z,54.90
2016-12-15T05:19:13.167Z,54.90
2016-12-15T05:20:14.044Z,54.90
2016-12-15T05:21:14.132Z,54.90
2016-12-15T05:22:14.005Z,54.80
2016-12-15T05:23:12.806Z,54.90
2016-12-15T05:24:12.382Z,54.80
2016-12-15T05:25:16.380Z,54.90
2016-12-15T05:26:12.893Z,54.90
2016-12-15T05:27:12.269Z,54.80
2016-12-15T05:28:14.078Z,54.90
2016-12-15T05:29:13.158Z,54.90
2016-12-15T05:30:14.032Z,54.90
2016-12-15T05:31:14.218Z,54.90
2016-12-15T05:32:13.305Z,54.90
2016-12-15T05:33:13.282Z,54.80
2016-12-15T05:34:13.128Z,54.90
2016-12-15T05:35:14.082Z,54.90
2016-12-15T05:36:12.615Z,54.90
2016-12-15T05:37:11.958Z,55.00
2016-12-15T05:38:12.774Z,54.90
2016-12-15T05:39:12.397Z,54.80
2016-12-15T05:40:12.909Z,54.80
2016-12-15T05:41:12.550Z,54.80
2016-12-15T05:42:13.322Z,54.90
2016-12-15T05:43:13.343Z,54.90
2016-12-15T05:44:13.115Z,54.90
2016-12-15T05:45:12.713Z,54.80
2016-12-15T05:46:13.766Z,54.80
2016-12-15T05:47:13.706Z,54.90
2016-12-15T05:48:12.497Z,54.90
2016-12-15T05:49:13.447Z,54.80
2016-12-15T05:50:12.386Z,54.90
2016-12-15T05:51:12.035Z,54.80
2016-12-15T05:52:13.203Z,54.90
2016-12-15T05:53:13.186Z,54.80
2016-12-15T05:54:13.195Z,54.90
2016-12-15T05:55:12.803Z,54.80
2016-12-15T05:56:14.112Z,54.90
2016-12-15T05:57:13.160Z,54.80
2016-12-15T05:58:13.005Z,54.80
2016-12-15T05:59:12.465Z,54.80
2016-12-15T06:00:12.606Z,54.80
2016-12-15T06:01:12.236Z,54.80
2016-12-15T06:02:13.266Z,54.80
2016-12-15T06:03:13.445Z,54.90
2016-12-15T06:04:13.716Z,54.00
2016-12-15T06:05:12.287Z,54.80
2016-12-15T06:06:12.794Z,54.90
2016-12-15T06:07:13.688Z,54.90
2016-12-15T06:08:14.308Z,55.10
2016-12-15T06:09:14.462Z,54.90
2016-12-15T06:10:12.291Z,54.80
2016-12-15T06:11:13.278Z,54.90
2016-12-15T06:12:11.124Z,is
2016-12-15T06:13:12.722Z,54.90
2016-12-15T06:14:12.137Z,54.90
2016-12-15T06:15:13.456Z,54.90
2016-12-15T06:16:12.562Z,54.90
2016-12-15T06:17:12.637Z,54.90
2016-12-15T06:18:12.802Z,54.90
2016-12-15T06:19:12.177Z,54.80
2016-12-15T06:20:13.128Z,54.90
2016-12-15T06:21:13.572Z,54.90
2016-12-15T06:22:12.682Z,54.90
2016-12-15T06:23:12.869Z,54.90
2016-12-15T06:24:12.574Z,54.90
2016-12-15T06:25:12.744Z,54.90
2016-12-15T06:26:12.294Z,54.80
2016-12-15T06:27:13.392Z,54.90
2016-12-15T06:28:11.838Z,54.80
2016-12-15T06:29:13.187Z,54.60
2016-12-15T06:30:13.188Z,54.90
2016-12-15T06:31:12.235Z,54.90
2016-12-15T06:32:12.845Z,54.80
2016-12-15T06:33:13.683Z,54.90
2016-12-15T06:34:18.223Z,54.80
2016-12-15T06:35:12.604Z,54.90
2016-12-15T06:36:12.668Z,54.90
2016-12-15T06:37:13.032Z,54.90
2016-12-15T06:38:12.576Z,54.80
2016-12-15T06:39:12.037Z,54.80
2016-12-15T06:40:13.301Z,54.80
2016-12-15T06:41:13.235Z,54.90
2016-12-15T06:42:12.684Z,54.80
2016-12-15T06:43:12.313Z,54.80
2016-12-15T06:44:17.528Z,54.80
2016-12-15T06:45:12.641Z,54.80
2016-12-15T06:46:12.126Z,54.80
2016-12-15T06:47:12.807Z,54.80
2016-12-15T06:48:10.450Z,is
2016-12-15T06:49:13.435Z,54.90
2016-12-15T06:50:12.152Z,54.90
2016-12-15T06:51:13.785Z,54.90
2016-12-15T06:52:16.093Z,54.80
2016-12-15T06:53:12.677Z,54.80
2016-12-15T06:54:12.684Z,54.90
2016-12-15T06:55:12.566Z,54.90
2016-12-15T06:56:12.185Z,54.80
2016-12-15T06:57:12.629Z,54.80
2016-12-15T06:58:13.877Z,54.90
2016-12-15T06:59:12.348Z,54.90
2016-12-15T07:00:14.362Z,55.00
2016-12-15T07:01:12.414Z,54.90
2016-12-15T07:02:12.534Z,54.80
2016-12-15T07:03:12.168Z,54.80
2016-12-15T07:04:12.671Z,55.40
2016-12-15T07:05:14.884Z,54.90
2016-12-15T07:06:13.060Z,54.90
2016-12-15T07:07:11.432Z,is
2016-12-15T07:08:13.493Z,54.90
2016-12-15T07:09:09.976Z,is
2016-12-15T07:10:12.892Z,54.80
2016-12-15T07:11:12.601Z,54.90
2016-12-15T07:12:12.912Z,54.90
2016-12-15T07:13:12.462Z,54.80
2016-12-15T07:14:12.151Z,54.80
2016-12-15T07:15:12.652Z,54.80
2016-12-15T07:16:12.727Z,54.90
2016-12-15T07:17:12.814Z,54.90
2016-12-15T07:18:12.580Z,54.90
2016-12-15T07:19:12.568Z,54.90
2016-12-15T07:20:12.627Z,54.90
2016-12-15T07:21:12.712Z,55.00
2016-12-15T07:22:12.129Z,54.80
2016-12-15T07:23:11.493Z,is
2016-12-15T07:24:14.556Z,54.90
2016-12-15T07:25:12.187Z,54.80
2016-12-15T07:26:13.045Z,54.80
2016-12-15T07:27:13.482Z,54.90
2016-12-15T07:28:12.840Z,54.90
2016-12-15T07:29:12.452Z,54.80
2016-12-15T07:30:12.063Z,54.80
2016-12-15T07:31:12.611Z,54.80
2016-12-15T07:32:12.283Z,54.80
2016-12-15T07:33:13.338Z,54.90
2016-12-15T07:34:14.272Z,54.90
2016-12-15T07:35:12.687Z,54.80
2016-12-15T07:36:13.693Z,54.90
2016-12-15T07:37:12.323Z,54.80
2016-12-15T07:38:13.654Z,54.90
2016-12-15T07:39:12.155Z,54.80
2016-12-15T07:40:12.572Z,54.70
2016-12-15T07:41:12.709Z,54.90
2016-12-15T07:42:13.591Z,54.80
2016-12-15T07:43:11.977Z,54.80
2016-12-15T07:44:12.554Z,54.80
2016-12-15T07:45:12.868Z,54.80
2016-12-15T07:46:13.850Z,54.90
2016-12-15T07:47:12.485Z,54.80
2016-12-15T07:48:14.667Z,54.80
2016-12-15T07:49:13.077Z,54.90
2016-12-15T07:50:13.159Z,54.90
2016-12-15T07:51:13.609Z,54.90
2016-12-15T07:52:12.622Z,54.90
2016-12-15T07:53:12.248Z,54.80
2016-12-15T07:54:12.653Z,54.80
2016-12-15T07:55:12.235Z,54.80
2016-12-15T07:56:13.611Z,54.90
2016-12-15T07:57:12.087Z,54.90
2016-12-15T07:58:12.675Z,54.80
2016-12-15T07:59:13.418Z,54.00
2016-12-15T08:00:12.340Z,54.90
2016-12-15T08:01:12.802Z,54.90
2016-12-15T08:02:13.661Z,54.80
2016-12-15T08:03:13.873Z,54.90
2016-12-15T08:04:13.094Z,54.70
2016-12-15T08:05:12.796Z,54.80
2016-12-15T08:06:13.079Z,54.90
2016-12-15T08:07:13.594Z,54.80
2016-12-15T08:08:12.652Z,54.90
2016-12-15T08:09:12.250Z,54.80
2016-12-15T08:10:14.876Z,54.90
2016-12-15T08:11:13.242Z,54.90
2016-12-15T08:12:13.310Z,54.90
2016-12-15T08:13:11.486Z,is
2016-12-15T08:14:12.413Z,54.80
2016-12-15T08:15:11.996Z,55.10
2016-12-15T08:16:15.114Z,54.80
2016-12-15T08:17:10.744Z,is
2016-12-15T08:18:12.278Z,48.50
2016-12-15T08:19:13.298Z,42.40
2016-12-15T08:20:15.526Z,41.50
2016-12-15T08:21:12.314Z,41.80
2016-12-15T08:22:13.602Z,43.20
2016-12-15T08:23:12.710Z,44.00
2016-12-15T08:24:13.010Z,45.80
2016-12-15T08:25:13.037Z,47.50
2016-12-15T08:26:13.623Z,47.70
2016-12-15T08:27:12.095Z,48.20
2016-12-15T08:28:12.894Z,48.60
2016-12-15T08:29:12.453Z,48.70
2016-12-15T08:30:12.449Z,48.80
2016-12-15T08:31:12.019Z,48.50
2016-12-15T08:32:13.628Z,48.40
2016-12-15T08:33:12.416Z,48.40
2016-12-15T08:34:12.513Z,48.20
2016-12-15T08:35:12.149Z,48.00
2016-12-15T08:36:12.783Z,48.10
2016-12-15T08:37:12.663Z,48.20
2016-12-15T08:38:12.184Z,48.30
2016-12-15T08:39:12.501Z,48.20
2016-12-15T08:40:13.130Z,48.10
2016-12-15T08:41:13.096Z,48.20
2016-12-15T08:42:12.593Z,48.00
2016-12-15T08:43:12.334Z,48.20
2016-12-15T08:44:16.374Z,48.20
2016-12-15T08:45:12.500Z,48.30
2016-12-15T08:46:12.523Z,48.50
2016-12-15T08:47:12.290Z,48.50
2016-12-15T08:48:12.747Z,48.70
2016-12-15T08:49:12.166Z,49.00
2016-12-15T08:50:15.132Z,48.50
2016-12-15T08:51:13.194Z,48.90
2016-12-15T08:52:12.797Z,48.80
2016-12-15T08:53:12.643Z,48.90
2016-12-15T08:54:12.243Z,48.80
2016-12-15T08:55:12.727Z,48.90
2016-12-15T08:56:12.506Z,48.90
2016-12-15T08:57:12.492Z,48.90
2016-12-15T08:58:13.423Z,49.00
2016-12-15T08:59:11.964Z,48.90
2016-12-15T09:00:12.919Z,49.00
2016-12-15T09:01:13.078Z,48.90
2016-12-15T09:02:15.545Z,is
2016-12-15T09:03:12.061Z,48.90
2016-12-15T09:04:12.537Z,48.90
2016-12-15T09:05:14.627Z,49.50
2016-12-15T09:06:10.305Z,is
2016-12-15T09:07:12.672Z,48.90
2016-12-15T09:08:12.404Z,49.00
2016-12-15T09:09:14.701Z,49.00
2016-12-15T09:10:12.849Z,49.00
2016-12-15T09:11:12.249Z,49.00
2016-12-15T09:12:13.481Z,49.90
2016-12-15T09:13:12.554Z,49.00
2016-12-15T09:14:12.657Z,49.20
2016-12-15T09:15:14.657Z,48.40
2016-12-15T09:16:12.613Z,49.30
2016-12-15T09:17:12.244Z,49.30
2016-12-15T09:18:13.252Z,49.50
2016-12-15T09:19:12.636Z,49.50
2016-12-15T09:20:12.535Z,49.50
2016-12-15T09:21:13.399Z,49.30
2016-12-15T09:22:12.298Z,49.50
2016-12-15T09:23:10.807Z,is
2016-12-15T09:24:10.217Z,is
2016-12-15T09:25:11.359Z,is
2016-12-15T09:26:12.324Z,49.60
2016-12-15T09:27:11.722Z,is
2016-12-15T09:28:12.314Z,49.50
2016-12-15T09:29:14.350Z,49.70
2016-12-15T09:30:13.371Z,49.80
2016-12-15T09:31:15.369Z,48.90
2016-12-15T09:32:12.314Z,49.80
2016-12-15T09:33:15.242Z,49.90
2016-12-15T09:34:13.186Z,49.90
2016-12-15T09:35:13.337Z,49.90
2016-12-15T09:36:14.296Z,49.90
2016-12-15T09:37:12.931Z,49.90
2016-12-15T09:38:12.656Z,50.00
2016-12-15T09:39:13.155Z,50.00
2016-12-15T09:40:13.154Z,50.00
2016-12-15T09:41:13.006Z,50.10
2016-12-15T09:42:13.097Z,50.00
2016-12-15T09:43:13.050Z,50.20
2016-12-15T09:44:16.165Z,50.20
2016-12-15T09:45:14.024Z,50.30
2016-12-15T09:46:14.269Z,50.20
2016-12-15T09:47:13.591Z,50.40
2016-12-15T09:48:12.891Z,50.20
2016-12-15T09:49:12.581Z,50.20
2016-12-15T09:50:12.641Z,50.40
2016-12-15T09:51:12.471Z,50.40
2016-12-15T09:52:12.061Z,50.40
2016-12-15T09:53:12.951Z,50.50
2016-12-15T09:54:12.495Z,50.50
2016-12-15T09:55:12.418Z,50.50
2016-12-15T09:56:10.934Z,is
2016-12-15T09:57:15.139Z,49.70
2016-12-15T09:58:12.811Z,50.10
2016-12-15T09:59:12.348Z,50.60
2016-12-15T10:00:13.469Z,50.70
2016-12-15T10:01:12.251Z,50.70
2016-12-15T10:02:13.180Z,50.60
2016-12-15T10:03:12.682Z,50.80
2016-12-15T10:04:12.685Z,50.70
2016-12-15T10:05:12.227Z,50.90
2016-12-15T10:06:12.820Z,50.90
2016-12-15T10:07:13.150Z,51.00
2016-12-15T10:08:10.959Z,is
2016-12-15T10:09:16.012Z,50.90
2016-12-15T10:10:12.769Z,50.90
2016-12-15T10:11:13.217Z,51.00
2016-12-15T10:12:12.846Z,51.00
2016-12-15T10:13:14.820Z,50.20
2016-12-15T10:14:12.300Z,51.00
2016-12-15T10:15:12.714Z,51.00
2016-12-15T10:16:13.075Z,51.00
2016-12-15T10:17:13.580Z,51.20
2016-12-15T10:18:12.966Z,51.20
2016-12-15T10:19:12.886Z,51.20
2016-12-15T10:20:12.921Z,51.20
2016-12-15T10:21:12.981Z,51.30
2016-12-15T10:22:13.164Z,51.30
2016-12-15T10:23:12.522Z,51.20
2016-12-15T10:24:12.167Z,51.30
2016-12-15T10:25:12.580Z,51.30
2016-12-15T10:26:13.281Z,51.20
2016-12-15T10:27:13.692Z,51.30
2016-12-15T10:28:13.696Z,51.30
2016-12-15T10:29:12.402Z,51.30
2016-12-15T10:30:12.406Z,51.40
2016-12-15T10:31:12.292Z,51.30
2016-12-15T10:32:12.844Z,51.40
2016-12-15T10:33:12.300Z,51.30
2016-12-15T10:34:13.939Z,51.40
2016-12-15T10:35:13.884Z,51.40
2016-12-15T10:36:16.192Z,51.40
2016-12-15T10:37:13.419Z,51.50
2016-12-15T10:38:13.307Z,51.50
2016-12-15T10:39:12.809Z,51.40
2016-12-15T10:40:13.391Z,51.50
2016-12-15T10:41:11.606Z,is
2016-12-15T10:42:12.459Z,51.50
2016-12-15T10:43:13.507Z,50.60
2016-12-15T10:44:12.528Z,51.50
2016-12-15T10:45:12.239Z,51.60
2016-12-15T10:46:12.559Z,51.50
2016-12-15T10:47:12.481Z,51.50
2016-12-15T10:48:12.138Z,51.50
2016-12-15T10:49:12.661Z,51.50
2016-12-15T10:50:12.332Z,51.50
2016-12-15T10:51:13.151Z,51.70
2016-12-15T10:52:15.312Z,51.60
2016-12-15T10:53:13.751Z,51.60
2016-12-15T10:54:12.728Z,51.70
2016-12-15T10:55:12.680Z,51.70
2016-12-15T10:56:12.644Z,51.70
2016-12-15T10:57:12.791Z,51.70
2016-12-15T10:58:15.897Z,50.80
2016-12-15T10:59:15.200Z,50.70
2016-12-15T11:00:12.937Z,51.60
2016-12-15T11:01:12.848Z,51.70
2016-12-15T11:02:12.481Z,51.60
2016-12-15T11:03:12.104Z,51.70
2016-12-15T11:04:14.298Z,51.70
2016-12-15T11:05:12.781Z,51.70
2016-12-15T11:06:12.703Z,51.80
2016-12-15T11:07:12.514Z,51.90
2016-12-15T11:08:12.114Z,51.70
2016-12-15T11:09:12.972Z,52.00
2016-12-15T11:10:13.147Z,52.00
2016-12-15T11:11:13.218Z,51.80
2016-12-15T11:12:13.468Z,51.70
2016-12-15T11:13:12.081Z,51.70
2016-12-15T11:14:13.155Z,51.80
2016-12-15T11:15:12.711Z,51.80
2016-12-15T11:16:12.528Z,51.90
2016-12-15T11:17:11.008Z,is
2016-12-15T11:18:12.755Z,51.80
2016-12-15T11:19:09.880Z,is
2016-12-15T11:20:10.981Z,is
2016-12-15T11:21:14.730Z,51.90
2016-12-15T11:22:12.519Z,51.80
2016-12-15T11:23:13.233Z,51.80
2016-12-15T11:24:12.899Z,51.90
2016-12-15T11:25:12.756Z,51.90
2016-12-15T11:26:13.745Z,51.00
2016-12-15T11:27:11.155Z,is
2016-12-15T11:28:10.788Z,is
2016-12-15T11:29:12.470Z,51.80
2016-12-15T11:30:14.537Z,52.00
2016-12-15T11:31:12.898Z,51.80
2016-12-15T11:32:12.479Z,51.90
2016-12-15T11:33:13.391Z,52.00
2016-12-15T11:34:12.850Z,51.80
2016-12-15T11:35:15.680Z,52.00
2016-12-15T11:36:12.636Z,52.00
2016-12-15T11:37:12.906Z,51.90
2016-12-15T11:38:12.273Z,51.80
2016-12-15T11:39:12.719Z,51.80
2016-12-15T11:40:12.500Z,51.90
2016-12-15T11:41:12.831Z,52.00
2016-12-15T11:42:12.352Z,51.90
2016-12-15T11:43:12.958Z,51.90
2016-12-15T11:44:12.657Z,52.00
2016-12-15T11:45:12.629Z,52.30
2016-12-15T11:46:12.295Z,51.90
2016-12-15T11:47:13.030Z,51.90
2016-12-15T11:48:12.368Z,51.90
2016-12-15T11:49:13.460Z,52.00
2016-12-15T11:50:12.229Z,51.90
2016-12-15T11:51:14.459Z,52.00
2016-12-15T11:52:12.072Z,52.00
2016-12-15T11:53:12.649Z,52.00
2016-12-15T11:54:12.260Z,52.00
2016-12-15T11:55:14.419Z,52.00
2016-12-15T11:56:11.938Z,51.90
2016-12-15T11:57:13.925Z,52.00
2016-12-15T11:58:12.382Z,52.00
2016-12-15T11:59:11.943Z,52.00
2016-12-15T12:00:12.568Z,52.10
2016-12-15T12:01:17.918Z,52.00
2016-12-15T12:02:12.428Z,52.00
2016-12-15T12:03:11.968Z,52.00
2016-12-15T12:04:13.126Z,52.00
2016-12-15T12:05:14.157Z,52.00
2016-12-15T12:06:18.151Z,52.00
2016-12-15T12:07:18.760Z,52.10
2016-12-15T12:08:12.338Z,52.20
2016-12-15T12:09:12.996Z,52.00
2016-12-15T12:10:14.198Z,52.10
2016-12-15T12:11:12.997Z,52.10
2016-12-15T12:12:13.707Z,52.10
2016-12-15T12:13:13.098Z,52.00
2016-12-15T12:14:18.224Z,52.10
2016-12-15T12:15:12.821Z,52.10
2016-12-15T12:16:12.602Z,52.00
2016-12-15T12:17:12.596Z,52.20
2016-12-15T12:18:14.637Z,52.20
2016-12-15T12:19:12.173Z,52.20
2016-12-15T12:20:13.543Z,52.20
2016-12-15T12:21:10.154Z,is
2016-12-15T12:22:13.033Z,52.20
2016-12-15T12:23:14.110Z,52.20
2016-12-15T12:24:13.592Z,52.20
2016-12-15T12:25:12.287Z,52.10
2016-12-15T12:26:10.306Z,is
2016-12-15T12:27:15.176Z,52.10
2016-12-15T12:28:12.892Z,52.10
2016-12-15T12:29:12.373Z,52.20
2016-12-15T12:30:12.505Z,52.10
2016-12-15T12:31:12.452Z,52.20
2016-12-15T12:32:12.161Z,52.10
2016-12-15T12:33:12.923Z,52.20
2016-12-15T12:34:13.033Z,52.30
2016-12-15T12:35:14.104Z,52.20
2016-12-15T12:36:14.319Z,52.30
2016-12-15T12:37:13.587Z,52.20
2016-12-15T12:38:12.129Z,52.10
2016-12-15T12:39:19.109Z,52.30
2016-12-15T12:40:14.134Z,52.30
2016-12-15T12:41:09.850Z,is
2016-12-15T12:42:12.011Z,52.20
2016-12-15T12:43:12.590Z,52.20
2016-12-15T12:44:12.355Z,52.20
2016-12-15T12:45:10.893Z,is
2016-12-15T12:46:12.669Z,52.30
2016-12-15T12:47:12.465Z,52.20
2016-12-15T12:48:12.781Z,52.30
2016-12-15T12:49:12.744Z,52.40
2016-12-15T12:50:13.905Z,52.30
2016-12-15T12:51:13.088Z,52.40
2016-12-15T12:52:13.191Z,52.30
2016-12-15T12:53:11.342Z,is
2016-12-15T12:54:14.704Z,52.30
2016-12-15T12:55:12.380Z,52.30
2016-12-15T12:56:12.055Z,52.20